createdAt,value
2018-12-13T00:01:09.916Z,53.67
2018-12-13T00:03:41.168Z,45.90
2018-12-13T00:06:12.397Z,48.30
2018-12-13T00:08:42.458Z,44.93
2018-12-13T00:11:11.705Z,49.13
2018-12-13T00:13:40.884Z,55.33
2018-12-13T00:16:09.993Z,44.30
2018-12-13T00:18:39.140Z,43.97
2018-12-13T00:21:08.659Z,40.23
2018-12-13T00:23:38.091Z,46.73
2018-12-13T00:26:08.286Z,49.60
2018-12-13T00:28:38.218Z,51.73
2018-12-13T00:31:07.383Z,48.67
2018-12-13T00:33:36.515Z,51.37
2018-12-13T00:36:05.952Z,44.47
2018-12-13T00:38:35.244Z,44.53
2018-12-13T00:41:04.429Z,48.37
2018-12-13T00:43:33.601Z,47.97
2018-12-13T00:46:02.785Z,50.93
2018-12-13T00:48:32.138Z,52.80
2018-12-13T00:51:01.318Z,52.30
2018-12-13T00:53:30.507Z,46.90
2018-12-13T00:55:59.671Z,42.23
2018-12-13T00:58:28.859Z,45.43
2018-12-13T01:01:01.805Z,50.60
2018-12-13T01:03:31.880Z,48.47
2018-12-13T01:06:01.296Z,50.77
2018-12-13T01:08:30.485Z,47.13
2018-12-13T01:10:59.917Z,52.43
2018-12-13T01:13:29.101Z,40.40
2018-12-13T01:15:58.261Z,53.83
2018-12-13T01:18:28.121Z,46.33
2018-12-13T01:20:57.257Z,42.50
2018-12-13T01:28:19.004Z,43.37
2018-12-13T01:30:48.162Z,45.97
2018-12-13T01:33:17.314Z,43.13
2018-12-13T01:35:46.779Z,50.50
2018-12-13T01:38:15.919Z,46.17
2018-12-13T01:40:45.113Z,47.43
2018-12-13T01:43:14.429Z,47.63
2018-12-13T01:45:43.611Z,51.77
2018-12-13T01:48:12.852Z,46.83
2018-12-13T01:50:42.145Z,51.20
2018-12-13T01:53:11.309Z,51.90
2018-12-13T01:55:40.439Z,44.97
2018-12-13T01:58:09.668Z,46.50
2018-12-13T02:00:38.967Z,51.47
2018-12-13T02:03:08.489Z,49.90
2018-12-13T02:05:37.958Z,56.83
2018-12-13T02:08:08.562Z,52.37
2018-12-13T02:10:37.812Z,49.20
2018-12-13T02:13:08.317Z,47.47
2018-12-13T02:15:37.511Z,50.03
2018-12-13T02:18:06.869Z,48.30
2018-12-13T02:20:36.059Z,47.17
2018-12-13T02:23:05.876Z,50.17
2018-12-13T02:25:35.257Z,50.07
2018-12-13T02:28:04.500Z,49.07
2018-12-13T02:30:33.671Z,52.33
2018-12-13T02:33:03.094Z,51.13
2018-12-13T02:35:32.280Z,47.73
2018-12-13T02:38:01.575Z,49.07
2018-12-13T02:40:30.807Z,49.03
2018-12-13T02:43:00.767Z,46.87
2018-12-13T02:45:30.158Z,44.47
2018-12-13T02:47:59.848Z,53.17
2018-12-13T02:50:29.441Z,52.17
2018-12-13T02:52:58.640Z,50.23
2018-12-13T02:55:27.799Z,47.90
2018-12-13T02:57:56.959Z,51.33
2018-12-13T03:00:26.107Z,50.43
2018-12-13T03:02:55.457Z,44.13
2018-12-13T03:05:24.867Z,47.20
2018-12-13T03:07:54.393Z,46.33
2018-12-13T03:10:25.977Z,47.27
2018-12-13T03:12:55.878Z,47.87
2018-12-13T03:15:25.416Z,50.67
2018-12-13T03:17:54.581Z,48.20
2018-12-13T03:20:23.724Z,50.47
2018-12-13T03:22:52.927Z,46.33
2018-12-13T03:25:22.602Z,53.20
2018-12-13T03:27:51.744Z,49.10
2018-12-13T03:30:20.982Z,51.67
2018-12-13T03:32:50.169Z,48.63
2018-12-13T03:35:19.382Z,53.60
2018-12-13T03:37:50.624Z,50.87
2018-12-13T03:40:20.080Z,47.20
2018-12-13T03:42:49.290Z,49.10
2018-12-13T03:45:18.399Z,46.87
2018-12-13T03:47:49.493Z,48.73
2018-12-13T03:50:18.797Z,48.70
2018-12-13T03:52:47.968Z,49.53
2018-12-13T03:55:17.137Z,52.97
2018-12-13T03:57:46.296Z,54.20
2018-12-13T04:00:15.501Z,50.73
2018-12-13T04:02:44.788Z,48.77
2018-12-13T04:05:14.028Z,46.53
2018-12-13T04:07:43.220Z,50.97
2018-12-13T04:10:13.722Z,48.73
2018-12-13T04:12:42.847Z,52.17
2018-12-13T04:15:12.204Z,52.07
2018-12-13T04:17:41.409Z,47.27
2018-12-13T04:20:12.625Z,46.57
2018-12-13T04:22:41.894Z,56.00
2018-12-13T04:25:11.255Z,54.87
2018-12-13T04:27:40.714Z,51.13
2018-12-13T04:30:10.143Z,50.73
2018-12-13T04:32:39.323Z,44.10
2018-12-13T04:35:08.590Z,49.23
2018-12-13T04:37:38.804Z,48.33
2018-12-13T04:40:08.323Z,49.77
2018-12-13T04:42:37.421Z,52.00
2018-12-13T04:45:07.282Z,51.50
2018-12-13T04:47:37.214Z,49.57
2018-12-13T04:50:07.281Z,53.47
2018-12-13T04:52:36.501Z,54.77
2018-12-13T04:55:06.140Z,60.83
2018-12-13T04:57:35.308Z,46.83
2018-12-13T05:00:05.176Z,47.73
2018-12-13T05:02:34.485Z,50.07
2018-12-13T05:05:03.976Z,50.20
2018-12-13T05:07:33.259Z,50.53
2018-12-13T05:10:02.620Z,50.77
2018-12-13T05:12:33.185Z,54.33
2018-12-13T05:15:02.520Z,49.57
2018-12-13T05:17:31.724Z,54.67
2018-12-13T05:20:00.864Z,51.07
2018-12-13T05:22:30.512Z,50.83
2018-12-13T05:25:00.445Z,53.07
2018-12-13T05:27:29.737Z,50.53
2018-12-13T05:29:58.938Z,59.23
2018-12-13T05:32:28.103Z,57.17
2018-12-13T05:34:57.508Z,51.07
2018-12-13T05:37:26.682Z,53.27
2018-12-13T05:39:56.480Z,51.03
2018-12-13T05:42:25.591Z,49.70
2018-12-13T05:44:54.748Z,45.63
2018-12-13T05:47:24.993Z,51.33
2018-12-13T05:49:54.151Z,50.17
2018-12-13T05:52:23.884Z,49.90
2018-12-13T05:54:53.025Z,50.47
2018-12-13T05:57:22.154Z,48.10
2018-12-13T05:59:51.402Z,48.83
2018-12-13T06:03:45.145Z,46.97
2018-12-13T06:06:14.489Z,50.83
2018-12-13T06:08:43.774Z,50.63
2018-12-13T06:11:12.963Z,51.87
2018-12-13T06:13:42.367Z,51.93
2018-12-13T06:16:11.666Z,53.10
2018-12-13T06:18:40.923Z,54.37
2018-12-13T06:21:11.935Z,54.03
2018-12-13T06:23:41.551Z,51.53
2018-12-13T06:26:10.730Z,51.80
2018-12-13T06:28:39.992Z,50.20
2018-12-13T06:31:09.902Z,51.83
2018-12-13T06:33:39.081Z,51.73
2018-12-13T06:36:08.290Z,54.57
2018-12-13T06:38:37.880Z,54.27
2018-12-13T06:41:07.281Z,53.53
2018-12-13T06:43:36.490Z,61.70
2018-12-13T06:46:05.842Z,56.10
2018-12-13T06:48:34.975Z,60.07
2018-12-13T06:51:04.158Z,62.53
2018-12-13T06:53:33.538Z,58.70
2018-12-13T06:56:02.768Z,68.50
2018-12-13T06:58:32.057Z,66.80
2018-12-13T07:01:01.671Z,63.17
2018-12-13T07:03:32.117Z,58.33
2018-12-13T07:06:03.104Z,60.90
2018-12-13T07:08:32.239Z,56.27
2018-12-13T07:11:01.413Z,67.43
2018-12-13T07:13:30.933Z,73.33
2018-12-13T07:16:00.296Z,62.50
2018-12-13T07:18:29.453Z,65.53
2018-12-13T07:20:58.672Z,68.80
2018-12-13T07:23:27.800Z,70.07
2018-12-13T07:25:56.938Z,73.20
2018-12-13T07:28:26.820Z,71.30
2018-12-13T07:30:55.962Z,79.37
2018-12-13T07:33:25.111Z,63.00
2018-12-13T07:35:55.174Z,69.97
2018-12-13T07:38:24.380Z,68.03
2018-12-13T07:40:53.650Z,66.50
2018-12-13T07:43:26.147Z,67.13
2018-12-13T07:45:55.348Z,62.93
2018-12-13T07:48:26.009Z,68.60
2018-12-13T07:50:55.482Z,63.27
2018-12-13T07:53:24.678Z,59.77
2018-12-13T07:55:53.910Z,72.17
2018-12-13T07:58:23.059Z,66.93
2018-12-13T08:00:52.694Z,64.43
2018-12-13T08:03:22.076Z,65.13
2018-12-13T08:05:51.414Z,63.67
2018-12-13T08:08:21.101Z,59.10
2018-12-13T08:10:51.089Z,57.60
2018-12-13T08:13:20.234Z,76.90
2018-12-13T08:15:49.874Z,65.23
2018-12-13T08:18:20.824Z,64.60
2018-12-13T08:20:52.139Z,61.83
2018-12-13T08:23:21.500Z,62.27
2018-12-13T08:25:50.910Z,61.97
2018-12-13T08:28:20.147Z,60.90
2018-12-13T08:30:49.537Z,62.30
2018-12-13T08:33:18.775Z,61.07
2018-12-13T08:35:48.060Z,55.43
2018-12-13T08:38:17.727Z,54.80
2018-12-13T08:40:46.944Z,52.40
2018-12-13T08:43:16.361Z,50.47
2018-12-13T08:45:46.541Z,54.13
2018-12-13T08:48:15.759Z,54.80
2018-12-13T08:50:45.253Z,47.77
2018-12-13T08:53:14.601Z,53.80
2018-12-13T08:55:44.309Z,48.00
2018-12-13T08:58:13.579Z,56.77
2018-12-13T09:00:43.153Z,54.23
2018-12-13T09:03:18.795Z,57.17
2018-12-13T09:05:50.526Z,57.30
2018-12-13T09:08:20.037Z,59.77
2018-12-13T09:10:53.293Z,55.83
2018-12-13T09:13:22.884Z,54.10
2018-12-13T09:15:52.269Z,47.10
2018-12-13T09:18:21.949Z,50.67
2018-12-13T09:20:51.140Z,44.20
2018-12-13T09:23:29.291Z,48.47
2018-12-13T09:26:02.195Z,48.87
2018-12-13T09:28:31.638Z,53.07
2018-12-13T09:31:00.914Z,50.70
2018-12-13T09:33:30.811Z,55.20
2018-12-13T09:36:00.562Z,50.80
2018-12-13T09:38:29.849Z,56.60
2018-12-13T09:40:59.295Z,53.97
2018-12-13T09:43:28.771Z,41.17
2018-12-13T09:45:58.968Z,48.37
2018-12-13T09:48:28.227Z,52.53
2018-12-13T09:50:58.010Z,46.13
2018-12-13T09:53:27.319Z,46.20
2018-12-13T09:55:56.859Z,51.07
2018-12-13T09:58:26.785Z,47.63
2018-12-13T10:00:55.961Z,51.33
2018-12-13T10:03:25.725Z,44.90
2018-12-13T10:05:54.956Z,45.00
2018-12-13T10:08:24.183Z,47.13
2018-12-13T10:10:53.841Z,45.03
2018-12-13T10:13:23.717Z,37.93
2018-12-13T10:15:52.936Z,45.87
2018-12-13T10:18:39.720Z,40.13
2018-12-13T10:21:10.709Z,41.17
2018-12-13T10:23:40.023Z,42.20
2018-12-13T10:26:12.051Z,47.33
2018-12-13T10:28:41.523Z,41.07
2018-12-13T10:31:12.010Z,47.77
2018-12-13T10:33:41.321Z,42.40
2018-12-13T10:36:20.351Z,43.83
2018-12-13T10:38:53.052Z,42.07
2018-12-13T10:41:21.164Z,45.63
2018-12-13T10:43:50.566Z,49.57
2018-12-13T10:46:21.485Z,49.93
2018-12-13T10:49:11.364Z,48.33
2018-12-13T10:51:54.071Z,46.73
2018-12-13T10:54:34.581Z,43.83
2018-12-13T10:57:13.974Z,45.30
2018-12-13T10:59:52.198Z,43.17
2018-12-13T11:02:36.612Z,46.60
2018-12-13T11:05:15.014Z,47.90
2018-12-13T11:07:52.330Z,43.43
2018-12-13T11:10:30.745Z,49.60
2018-12-13T11:13:12.215Z,42.73
2018-12-13T11:15:51.586Z,46.67
2018-12-13T11:18:31.578Z,41.53
2018-12-13T11:21:17.519Z,45.67
2018-12-13T11:23:55.539Z,42.87
2018-12-13T11:26:35.927Z,38.27
2018-12-13T11:31:20.245Z,33.27
2018-12-13T11:33:59.558Z,34.10
2018-12-13T11:36:35.784Z,36.20
2018-12-13T11:39:15.432Z,28.47
2018-12-13T11:41:52.337Z,34.27
2018-12-13T11:44:23.736Z,36.37
2018-12-13T11:46:58.677Z,32.37
2018-12-13T11:49:28.058Z,41.07
2018-12-13T11:51:57.787Z,36.23
2018-12-13T11:54:41.723Z,33.60
2018-12-13T11:57:11.515Z,35.27
2018-12-13T11:59:41.856Z,34.90
2018-12-13T12:02:11.463Z,35.20
2018-12-13T12:04:41.101Z,40.70
2018-12-13T12:07:11.813Z,36.80
2018-12-13T12:09:41.365Z,41.10
2018-12-13T12:12:11.040Z,36.07
2018-12-13T12:14:41.206Z,41.67
2018-12-13T12:17:11.060Z,38.13
2018-12-13T12:19:40.764Z,43.87
2018-12-13T12:22:10.681Z,47.23
2018-12-13T12:24:40.500Z,38.47
2018-12-13T12:27:10.163Z,37.87
2018-12-13T12:29:39.527Z,38.53
2018-12-13T12:32:09.077Z,35.70
2018-12-13T12:34:38.368Z,40.40
2018-12-13T12:37:08.280Z,40.80
2018-12-13T12:39:38.152Z,45.57
2018-12-13T12:42:07.590Z,42.17
2018-12-13T12:44:39.208Z,42.73
2018-12-13T12:47:08.576Z,46.57
2018-12-13T12:49:38.250Z,42.50
2018-12-13T12:52:08.045Z,41.60
2018-12-13T12:54:38.597Z,39.57
2018-12-13T12:57:09.750Z,43.50
2018-12-13T12:59:40.810Z,46.23
2018-12-13T13:02:10.287Z,45.80
2018-12-13T13:04:39.728Z,44.43
2018-12-13T13:07:09.120Z,50.33
2018-12-13T13:09:38.506Z,46.27
2018-12-13T13:12:08.034Z,45.23
2018-12-13T13:14:37.772Z,42.10
2018-12-13T13:17:08.342Z,44.13
2018-12-13T13:19:38.152Z,41.17
2018-12-13T13:22:08.021Z,48.57
2018-12-13T13:24:37.781Z,42.23
2018-12-13T13:27:07.152Z,51.53
2018-12-13T13:29:36.843Z,46.53
2018-12-13T13:32:06.282Z,42.23
2018-12-13T13:34:36.356Z,48.67
2018-12-13T13:37:06.345Z,47.83
2018-12-13T13:39:36.479Z,51.33
2018-12-13T13:42:06.048Z,53.87
2018-12-13T13:44:39.521Z,46.27
2018-12-13T13:47:09.024Z,45.30
2018-12-13T13:49:38.526Z,52.50
2018-12-13T13:52:08.731Z,52.00
2018-12-13T13:54:42.087Z,54.03
2018-12-13T13:57:13.462Z,51.80
2018-12-13T13:59:43.155Z,51.63
2018-12-13T14:02:12.709Z,53.70
2018-12-13T14:04:42.546Z,54.97
2018-12-13T14:07:12.170Z,51.37
2018-12-13T14:09:43.365Z,51.77
2018-12-13T14:12:13.426Z,47.13
2018-12-13T14:14:44.811Z,46.43
2018-12-13T14:17:14.902Z,52.77
2018-12-13T14:19:44.364Z,49.97
2018-12-13T14:22:13.724Z,50.63
2018-12-13T14:24:43.250Z,55.67
2018-12-13T14:27:12.867Z,51.87
2018-12-13T14:29:42.835Z,49.33
2018-12-13T14:32:12.089Z,56.37
2018-12-13T14:34:41.327Z,54.93
2018-12-13T14:37:10.981Z,60.87
2018-12-13T14:39:44.362Z,67.57
2018-12-13T14:42:15.641Z,58.67
2018-12-13T14:44:44.876Z,66.13
2018-12-13T14:47:14.413Z,62.30
2018-12-13T14:49:43.744Z,58.77
2018-12-13T14:52:13.035Z,55.60
2018-12-13T14:54:44.188Z,62.67
2018-12-13T14:57:13.543Z,62.03
2018-12-13T14:59:47.046Z,64.33
2018-12-13T15:02:14.841Z,64.27
2018-12-13T15:04:44.799Z,57.33
2018-12-13T15:07:14.094Z,62.73
2018-12-13T15:09:43.357Z,63.83
2018-12-13T15:12:13.026Z,64.43
2018-12-13T15:14:42.213Z,64.37
2018-12-13T15:17:11.391Z,65.90
2018-12-13T15:19:40.739Z,66.00
2018-12-13T15:22:09.974Z,61.97
2018-12-13T15:24:39.253Z,66.77
2018-12-13T15:27:08.626Z,78.83
2018-12-13T15:29:37.957Z,70.33
2018-12-13T15:32:07.290Z,67.27
2018-12-13T15:34:36.596Z,62.77
2018-12-13T15:37:07.291Z,68.93
2018-12-13T15:39:36.479Z,68.53
2018-12-13T15:42:05.890Z,71.00
2018-12-13T15:44:35.528Z,73.27
2018-12-13T15:47:06.205Z,69.00
2018-12-13T15:49:35.515Z,70.33
2018-12-13T15:52:04.835Z,68.77
2018-12-13T15:54:34.929Z,68.37
2018-12-13T15:57:04.137Z,67.30
2018-12-13T15:59:33.323Z,59.80
2018-12-13T16:02:03.343Z,60.90
2018-12-13T16:04:32.566Z,54.97
2018-12-13T16:07:01.892Z,58.77
2018-12-13T16:09:31.209Z,54.90
2018-12-13T16:12:08.978Z,55.93
2018-12-13T16:14:39.766Z,54.90
2018-12-13T16:17:09.135Z,57.30
2018-12-13T16:19:38.359Z,56.40
2018-12-13T16:22:08.334Z,52.10
2018-12-13T16:24:37.532Z,55.60
2018-12-13T16:27:06.762Z,57.67
2018-12-13T16:29:36.472Z,52.97
2018-12-13T16:32:05.822Z,57.00
2018-12-13T16:34:35.020Z,52.47
2018-12-13T16:37:04.395Z,51.77
2018-12-13T16:39:33.547Z,53.57
2018-12-13T16:42:02.850Z,53.60
2018-12-13T16:44:32.436Z,56.80
2018-12-13T16:47:01.680Z,53.87
2018-12-13T16:49:30.834Z,57.63
2018-12-13T16:52:00.214Z,61.03
2018-12-13T16:54:30.021Z,50.33
2018-12-13T16:57:01.242Z,55.83
2018-12-13T16:59:30.392Z,57.13
2018-12-13T17:01:59.602Z,59.43
2018-12-13T17:04:28.910Z,55.00
2018-12-13T17:06:58.206Z,58.73
2018-12-13T17:09:27.909Z,59.87
2018-12-13T17:11:57.218Z,54.63
2018-12-13T17:14:26.433Z,62.23
2018-12-13T17:16:55.971Z,56.37
2018-12-13T17:19:25.408Z,58.53
2018-12-13T17:21:55.491Z,58.33
2018-12-13T17:24:24.708Z,61.13
2018-12-13T17:26:53.967Z,55.90
2018-12-13T17:29:23.142Z,62.33
2018-12-13T17:31:52.644Z,60.77
2018-12-13T17:34:21.994Z,59.30
2018-12-13T17:36:51.499Z,60.33
2018-12-13T17:39:20.698Z,63.53
2018-12-13T17:41:50.467Z,58.77
2018-12-13T17:44:19.813Z,60.10
2018-12-13T17:46:49.038Z,57.80
2018-12-13T17:49:18.540Z,52.97
2018-12-13T17:51:49.165Z,49.40
2018-12-13T17:54:19.743Z,50.20
2018-12-13T17:56:49.562Z,44.07
2018-12-13T17:59:20.432Z,34.87
2018-12-13T18:01:50.373Z,44.17
2018-12-13T18:04:19.580Z,53.67
2018-12-13T18:06:49.278Z,46.17
2018-12-13T18:09:18.556Z,46.20
2018-12-13T18:11:48.165Z,47.40
2018-12-13T18:14:19.147Z,43.63
2018-12-13T18:16:48.473Z,45.80
2018-12-13T18:19:17.820Z,41.43
2018-12-13T18:21:47.513Z,41.37
2018-12-13T18:24:16.759Z,41.67
2018-12-13T18:26:46.762Z,40.70
2018-12-13T18:29:16.723Z,42.97
2018-12-13T18:31:47.450Z,39.53
2018-12-13T18:34:18.850Z,42.57
2018-12-13T18:36:48.517Z,39.03
2018-12-13T18:39:17.877Z,39.60
2018-12-13T18:41:47.495Z,42.57
2018-12-13T18:44:16.804Z,43.97
2018-12-13T18:46:46.443Z,43.13
2018-12-13T18:49:16.382Z,40.27
2018-12-13T18:51:45.689Z,41.87
2018-12-13T18:54:16.798Z,39.53
2018-12-13T18:56:47.714Z,42.60
2018-12-13T18:59:16.979Z,38.87
2018-12-13T19:01:47.857Z,39.13
2018-12-13T19:04:18.294Z,43.63
2018-12-13T19:06:49.193Z,40.87
2018-12-13T19:09:19.517Z,43.30
2018-12-13T19:11:49.022Z,41.77
2018-12-13T19:14:19.191Z,42.10
2018-12-13T19:16:48.651Z,44.23
2018-12-13T19:19:20.005Z,42.40
2018-12-13T19:21:49.457Z,39.80
2018-12-13T19:24:18.834Z,42.50
2018-12-13T19:26:49.131Z,39.20
2018-12-13T19:29:18.633Z,45.93
2018-12-13T19:31:49.059Z,39.57
2018-12-13T19:34:19.645Z,43.03
2018-12-13T19:36:49.820Z,46.20
2018-12-13T19:39:23.585Z,38.03
2018-12-13T19:41:54.129Z,41.80
2018-12-13T19:44:23.719Z,45.57
2018-12-13T19:46:53.028Z,44.43
2018-12-13T19:49:31.537Z,40.50
2018-12-13T19:52:07.803Z,39.37
2018-12-13T19:54:38.692Z,42.60
2018-12-13T19:57:08.171Z,41.53
2018-12-13T19:59:37.548Z,42.47
2018-12-13T20:02:07.083Z,39.13
2018-12-13T20:04:39.056Z,43.40
2018-12-13T20:07:08.414Z,42.93
2018-12-13T20:09:37.726Z,42.03
2018-12-13T20:12:08.551Z,46.80
2018-12-13T20:17:35.595Z,48.67
2018-12-13T20:20:10.174Z,48.03
2018-12-13T20:25:18.758Z,44.40
2018-12-13T20:27:49.982Z,46.00
2018-12-13T20:30:19.445Z,46.73
2018-12-13T20:32:49.268Z,49.30
2018-12-13T20:35:22.914Z,44.03
2018-12-13T20:37:52.337Z,46.77
2018-12-13T20:40:22.273Z,47.10
2018-12-13T20:42:51.643Z,47.80
2018-12-13T20:45:22.978Z,46.40
2018-12-13T20:47:58.617Z,43.43
2018-12-13T20:53:24.571Z,49.80
2018-12-13T20:55:54.215Z,44.17
2018-12-13T20:58:35.711Z,46.83
2018-12-13T21:01:07.064Z,46.83
2018-12-13T21:03:43.181Z,40.90
2018-12-13T21:06:18.695Z,47.33
2018-12-13T21:08:48.236Z,44.53
2018-12-13T21:11:17.802Z,41.40
2018-12-13T21:13:47.167Z,44.07
2018-12-13T21:16:17.423Z,46.87
2018-12-13T21:18:48.923Z,50.00
2018-12-13T21:21:19.907Z,43.27
2018-12-13T21:23:49.414Z,41.00
2018-12-13T21:26:18.793Z,44.77
2018-12-13T21:28:49.137Z,52.37
2018-12-13T21:31:18.365Z,45.13
2018-12-13T21:33:48.879Z,42.67
2018-12-13T21:36:26.047Z,44.90
2018-12-13T21:38:55.255Z,47.43
2018-12-13T21:41:24.488Z,44.83
2018-12-13T21:43:54.791Z,46.63
2018-12-13T21:46:24.104Z,40.37
2018-12-13T21:48:53.306Z,46.07
2018-12-13T21:51:22.538Z,50.93
2018-12-13T21:53:52.039Z,43.00
2018-12-13T21:56:21.212Z,41.83
2018-12-13T21:58:50.873Z,49.00
2018-12-13T22:01:20.084Z,48.93
2018-12-13T22:03:50.208Z,44.63
2018-12-13T22:06:20.080Z,47.20
2018-12-13T22:08:49.341Z,49.77
2018-12-13T22:11:20.060Z,51.10
2018-12-13T22:13:49.495Z,47.13
2018-12-13T22:16:19.373Z,50.57
2018-12-13T22:18:48.580Z,49.70
2018-12-13T22:21:17.780Z,46.17
2018-12-13T22:23:47.539Z,45.70
2018-12-13T22:26:16.746Z,48.30
2018-12-13T22:28:45.969Z,50.37
2018-12-13T22:31:16.552Z,48.13
2018-12-13T22:33:45.728Z,44.73
2018-12-13T22:36:15.003Z,45.87
2018-12-13T22:38:44.436Z,48.30
2018-12-13T22:41:14.734Z,50.27
2018-12-13T22:43:43.955Z,42.67
2018-12-13T22:46:14.384Z,41.80
2018-12-13T22:48:43.786Z,44.90
2018-12-13T22:51:13.133Z,45.53
2018-12-13T22:53:42.351Z,43.87
2018-12-13T22:56:11.928Z,48.73
2018-12-13T22:58:41.238Z,41.60
2018-12-13T23:01:10.586Z,45.57
2018-12-13T23:03:41.718Z,41.13
2018-12-13T23:06:11.176Z,48.37
2018-12-13T23:08:40.854Z,46.30
2018-12-13T23:11:10.796Z,46.47
2018-12-13T23:13:40.531Z,44.93
2018-12-13T23:16:09.851Z,40.77
2018-12-13T23:18:39.002Z,37.33
2018-12-13T23:21:08.577Z,36.67
2018-12-13T23:23:38.014Z,35.73
2018-12-13T23:26:08.833Z,38.97
2018-12-13T23:28:38.501Z,42.90
2018-12-13T23:31:07.690Z,36.90
2018-12-13T23:33:37.411Z,39.20
2018-12-13T23:36:07.118Z,38.63
2018-12-13T23:38:36.245Z,41.40
2018-12-13T23:41:05.613Z,44.47
2018-12-13T23:43:34.841Z,40.27
2018-12-13T23:46:05.712Z,40.43
2018-12-13T23:48:36.756Z,41.53
2018-12-13T23:51:05.957Z,36.47
2018-12-13T23:53:35.680Z,42.97
2018-12-13T23:56:07.489Z,40.43
2018-12-13T23:58:36.923Z,41.53
